Syracuse Hancock International Airport Syracuse US
ICAO: KSYR
IATA: SYR
Category: Large
Scheduled Services: Yes

Elevation: 421 ft
TransAlt. 18000 ft.

Airport Communications:
APP/DEP:126.125
ATIS:132.05
CLNC DEL:125.05
GND:121.7
ANG OPS:139.625
TWR:120.3
UNICOM:122.95

KSYR Zoom In..

Runways:

(A) RW 10 length 9003 ft width 150 ft
ILS 109.90 / hdg 100

(B) RW 15 length 7500 ft width 150 ft
---- / hdg 147

(C) RW 28 length 9003 ft width 150 ft
ILS 109.90 / hdg 280

(D) RW 33 length 7500 ft width 150 ft
---- / hdg 327

Location; KSYR
Day. 07 / Time. 17.54 Zulu
* Altimeter: 29.85
* Temperature: 16° c. 60.8°f.
* Wind from: 000° Speed 00 kn.
Dewpoint: -02° c.
Visibility: 10 Statute Miles.
Clouds: Few 4000 ft.
Clouds: Few 15000 ft.
Clouds: Few 2000 ft.
Clouds: Broken 25000 ft.

KSYR 071754Z 00000KT 10SM FEW040 FEW150 FEW200 BKN250 16/M02 A2985 RMK AO2 SLP105 T01611017 10167 20083 58033


Wind - Calm.

 
 
jpsmedia worldairports.se 2020   terms of use